createdAt,value
2019-01-14T00:01:49.957Z,1.70
2019-01-14T00:04:20.434Z,1.70
2019-01-14T00:06:50.912Z,1.70
2019-01-14T00:09:23.142Z,1.70
2019-01-14T00:11:53.627Z,1.70
2019-01-14T00:14:24.102Z,1.70
2019-01-14T00:16:54.750Z,1.70
2019-01-14T00:19:25.189Z,1.70
2019-01-14T00:21:55.670Z,1.70
2019-01-14T00:24:26.119Z,1.80
2019-01-14T00:26:56.625Z,1.80
2019-01-14T00:29:27.083Z,1.70
2019-01-14T00:31:57.585Z,1.70
2019-01-14T00:34:28.400Z,1.70
2019-01-14T00:36:58.883Z,1.70
2019-01-14T00:39:29.337Z,1.70
2019-01-14T00:41:59.826Z,1.70
2019-01-14T00:44:30.270Z,1.70
2019-01-14T00:47:00.766Z,1.70
2019-01-14T00:49:31.212Z,1.70
2019-01-14T00:52:01.704Z,1.70
2019-01-14T00:54:32.164Z,1.80
2019-01-14T00:57:02.646Z,1.70
2019-01-14T00:59:33.100Z,1.80
2019-01-14T01:02:03.649Z,1.80
2019-01-14T01:04:34.132Z,1.80
2019-01-14T01:07:04.793Z,1.70
2019-01-14T01:09:35.343Z,1.70
2019-01-14T01:12:06.923Z,1.70
2019-01-14T01:14:37.372Z,1.70
2019-01-14T01:17:07.855Z,1.70
2019-01-14T01:19:38.312Z,1.70
2019-01-14T01:22:08.799Z,1.70
2019-01-14T01:24:39.269Z,1.60
2019-01-14T01:27:09.755Z,1.70
2019-01-14T01:29:40.238Z,1.70
2019-01-14T01:32:10.690Z,1.70
2019-01-14T01:34:41.175Z,1.70
2019-01-14T01:37:11.627Z,1.70
2019-01-14T01:39:42.109Z,1.70
2019-01-14T01:42:12.657Z,1.70
2019-01-14T01:44:43.203Z,1.70
2019-01-14T01:47:13.733Z,1.70
2019-01-14T01:49:44.292Z,1.70
2019-01-14T01:52:14.818Z,1.70
2019-01-14T01:54:45.319Z,1.70
2019-01-14T01:57:15.795Z,1.70
2019-01-14T01:59:46.325Z,1.70
2019-01-14T02:02:16.818Z,1.70
2019-01-14T02:04:48.858Z,1.70
2019-01-14T02:07:19.324Z,1.70
2019-01-14T02:09:49.812Z,1.70
2019-01-14T02:12:20.304Z,1.70
2019-01-14T02:14:50.769Z,1.70
2019-01-14T02:17:22.891Z,1.70
2019-01-14T02:19:53.360Z,1.70
2019-01-14T02:22:23.849Z,1.70
2019-01-14T02:24:54.374Z,1.70
2019-01-14T02:27:24.862Z,1.70
2019-01-14T02:29:55.319Z,1.70
2019-01-14T02:32:25.828Z,1.70
2019-01-14T02:34:56.281Z,1.70
2019-01-14T02:37:26.769Z,1.70
2019-01-14T02:39:57.235Z,1.70
2019-01-14T02:42:27.721Z,1.70
2019-01-14T02:44:58.192Z,1.70
2019-01-14T02:47:28.667Z,1.70
2019-01-14T02:49:59.168Z,1.60
2019-01-14T02:52:29.637Z,1.70
2019-01-14T02:55:00.177Z,1.70
2019-01-14T02:57:31.353Z,1.70
2019-01-14T03:00:01.821Z,1.70
2019-01-14T03:02:32.378Z,1.70
2019-01-14T03:05:04.173Z,1.70
2019-01-14T03:07:34.717Z,1.60
2019-01-14T03:10:09.474Z,1.60
2019-01-14T03:12:40.016Z,1.60
2019-01-14T03:15:14.606Z,1.60
2019-01-14T03:17:45.063Z,1.60
2019-01-14T03:20:17.572Z,1.60
2019-01-14T03:22:48.263Z,1.60
2019-01-14T03:25:18.999Z,1.60
2019-01-14T03:27:49.510Z,1.60
2019-01-14T03:30:20.435Z,1.60
2019-01-14T03:32:50.892Z,1.60
2019-01-14T03:35:21.373Z,1.60
2019-01-14T03:37:51.856Z,1.50
2019-01-14T03:40:22.393Z,1.50
2019-01-14T03:42:52.930Z,1.50
2019-01-14T03:45:23.488Z,1.60
2019-01-14T03:47:53.948Z,1.70
2019-01-14T03:50:24.720Z,1.70
2019-01-14T03:52:55.176Z,1.70
2019-01-14T03:55:25.728Z,1.70
2019-01-14T03:57:56.260Z,1.70
2019-01-14T04:00:26.738Z,1.70
2019-01-14T04:02:57.199Z,1.80
2019-01-14T04:05:27.708Z,1.80
2019-01-14T04:07:58.244Z,1.80
2019-01-14T04:10:28.730Z,1.80
2019-01-14T04:12:59.207Z,1.70
2019-01-14T04:15:29.734Z,1.70
2019-01-14T04:18:00.229Z,1.80
2019-01-14T04:20:30.686Z,1.80
2019-01-14T04:23:01.485Z,1.80
2019-01-14T04:25:32.015Z,2.00
2019-01-14T04:28:02.499Z,2.10
2019-01-14T04:30:33.017Z,2.30
2019-01-14T04:33:03.512Z,2.40
2019-01-14T04:35:33.975Z,2.50
2019-01-14T04:38:04.538Z,2.50
2019-01-14T04:40:35.066Z,2.60
2019-01-14T04:43:05.614Z,2.60
2019-01-14T04:45:36.098Z,2.70
2019-01-14T04:48:06.589Z,2.90
2019-01-14T04:50:37.041Z,2.90
2019-01-14T04:53:07.522Z,3.00
2019-01-14T04:55:38.071Z,3.00
2019-01-14T04:58:10.067Z,3.10
2019-01-14T05:00:40.556Z,3.10
2019-01-14T05:03:11.048Z,3.10
2019-01-14T05:05:41.602Z,3.00
2019-01-14T05:08:12.712Z,3.10
2019-01-14T05:10:43.223Z,3.10
2019-01-14T05:13:13.702Z,3.10
2019-01-14T05:15:44.185Z,3.10
2019-01-14T05:18:14.652Z,3.10
2019-01-14T05:20:45.241Z,3.20
2019-01-14T05:23:15.697Z,3.20
2019-01-14T05:25:46.190Z,3.20
2019-01-14T05:28:16.638Z,3.30
2019-01-14T05:30:47.138Z,3.30
2019-01-14T05:33:17.627Z,3.30
2019-01-14T05:35:48.094Z,3.30
2019-01-14T05:38:18.577Z,3.40
2019-01-14T05:40:49.490Z,3.40
2019-01-14T05:43:19.987Z,3.40
2019-01-14T05:45:50.434Z,3.30
2019-01-14T05:48:20.982Z,3.30
2019-01-14T05:50:51.461Z,3.30
2019-01-14T05:53:21.911Z,3.30
2019-01-14T05:55:52.393Z,3.30
2019-01-14T05:58:22.846Z,3.30
2019-01-14T06:00:53.333Z,3.20
2019-01-14T06:03:23.847Z,3.20
2019-01-14T06:05:54.332Z,3.20
2019-01-14T06:08:24.794Z,3.10
2019-01-14T06:10:55.310Z,3.10
2019-01-14T06:13:25.768Z,3.10
2019-01-14T06:15:56.249Z,3.00
2019-01-14T06:18:26.700Z,3.00
2019-01-14T06:20:57.185Z,2.90
2019-01-14T06:23:27.658Z,2.90
2019-01-14T06:25:58.153Z,3.00
2019-01-14T06:28:28.680Z,2.90
2019-01-14T06:30:59.156Z,2.90
2019-01-14T06:33:29.640Z,2.90
2019-01-14T06:36:00.101Z,2.70
2019-01-14T06:38:30.589Z,2.70
2019-01-14T06:41:01.041Z,2.70
2019-01-14T06:43:31.535Z,2.70
2019-01-14T06:46:02.089Z,2.70
2019-01-14T06:48:32.589Z,2.70
2019-01-14T06:51:03.128Z,2.70
2019-01-14T06:53:34.621Z,2.70
2019-01-14T06:56:05.190Z,2.60
2019-01-14T06:58:35.675Z,2.60
2019-01-14T07:01:06.227Z,2.60
2019-01-14T07:03:36.719Z,2.50
2019-01-14T07:06:07.275Z,2.50
2019-01-14T07:08:39.607Z,2.50
2019-01-14T07:11:10.541Z,2.50
2019-01-14T07:13:41.043Z,2.50
2019-01-14T07:16:11.543Z,2.50
2019-01-14T07:18:42.021Z,2.60
2019-01-14T07:21:12.501Z,2.70
2019-01-14T07:23:43.008Z,2.70
2019-01-14T07:26:14.056Z,2.80
2019-01-14T07:28:44.565Z,2.80
2019-01-14T07:31:15.017Z,2.80
2019-01-14T07:33:45.507Z,3.10
2019-01-14T07:36:15.988Z,3.40
2019-01-14T07:38:46.445Z,3.50
2019-01-14T07:41:17.092Z,3.70
2019-01-14T07:43:47.564Z,3.70
2019-01-14T07:46:18.050Z,3.70
2019-01-14T07:48:48.529Z,3.60
2019-01-14T07:51:19.093Z,3.50
2019-01-14T07:53:49.554Z,3.40
2019-01-14T07:56:20.720Z,3.30
2019-01-14T07:58:51.478Z,3.20
2019-01-14T08:01:21.976Z,3.30
2019-01-14T08:03:52.429Z,3.50
2019-01-14T08:06:22.939Z,3.70
2019-01-14T08:08:53.395Z,3.70
2019-01-14T08:11:23.889Z,3.90
2019-01-14T08:13:54.335Z,4.00
2019-01-14T08:16:24.845Z,4.10
2019-01-14T08:18:55.370Z,4.10
2019-01-14T08:21:25.869Z,4.30
2019-01-14T08:23:56.338Z,4.30
2019-01-14T08:26:27.945Z,4.40
2019-01-14T08:28:58.478Z,4.40
2019-01-14T08:31:29.033Z,4.60
2019-01-14T08:33:59.565Z,4.60
2019-01-14T08:36:30.130Z,4.60
2019-01-14T08:39:00.638Z,4.70
2019-01-14T08:41:32.392Z,4.90
2019-01-14T08:44:04.632Z,5.10
2019-01-14T08:46:35.139Z,5.20
2019-01-14T08:49:05.664Z,5.30
2019-01-14T08:51:36.154Z,5.40
2019-01-14T08:54:06.684Z,5.40
2019-01-14T08:56:37.207Z,5.30
2019-01-14T08:59:07.730Z,5.20
2019-01-14T09:01:38.294Z,5.00
2019-01-14T09:04:08.958Z,4.90
2019-01-14T09:06:39.463Z,4.80
2019-01-14T09:09:10.790Z,4.70
2019-01-14T09:11:41.358Z,4.50
2019-01-14T09:14:11.832Z,4.50
2019-01-14T09:16:42.303Z,4.50
2019-01-14T09:19:12.861Z,4.50
2019-01-14T09:21:43.381Z,4.60
2019-01-14T09:24:13.867Z,4.40
2019-01-14T09:26:45.066Z,4.20
2019-01-14T09:29:15.638Z,3.90
2019-01-14T09:31:46.620Z,3.60
2019-01-14T09:34:17.108Z,3.30
2019-01-14T09:36:47.565Z,3.30
2019-01-14T09:39:18.046Z,3.30
2019-01-14T09:41:48.497Z,3.40
2019-01-14T09:44:18.992Z,3.60
2019-01-14T09:46:49.476Z,3.90
2019-01-14T09:49:20.024Z,4.10
2019-01-14T09:51:50.509Z,4.40
2019-01-14T09:54:21.001Z,4.70
2019-01-14T09:56:51.499Z,4.90
2019-01-14T09:59:21.983Z,5.00
2019-01-14T10:01:52.445Z,5.00
2019-01-14T10:04:22.951Z,5.00
2019-01-14T10:06:54.434Z,5.00
2019-01-14T10:09:24.905Z,5.00
2019-01-14T10:11:55.368Z,4.90
2019-01-14T10:14:25.920Z,4.70
2019-01-14T10:16:58.026Z,4.70
2019-01-14T10:19:28.524Z,4.80
2019-01-14T10:21:59.006Z,4.80
2019-01-14T10:24:29.479Z,4.80
2019-01-14T10:26:59.946Z,4.90
2019-01-14T10:29:30.429Z,5.10
2019-01-14T10:32:00.882Z,5.20
2019-01-14T10:34:31.369Z,5.30
2019-01-14T10:37:01.846Z,5.40
2019-01-14T10:39:32.330Z,5.60
2019-01-14T10:42:05.037Z,5.90
2019-01-14T10:44:34.972Z,6.10
2019-01-14T10:47:05.604Z,6.20
2019-01-14T10:49:36.103Z,6.60
2019-01-14T10:52:06.755Z,6.90
2019-01-14T10:54:37.225Z,7.20
2019-01-14T10:57:07.682Z,7.40
2019-01-14T10:59:38.172Z,7.30
2019-01-14T11:02:08.650Z,7.10
2019-01-14T11:04:39.137Z,7.00
2019-01-14T11:07:09.702Z,6.70
2019-01-14T11:09:44.563Z,6.20
2019-01-14T11:12:14.108Z,6.00
2019-01-14T11:14:44.573Z,5.60
2019-01-14T11:17:15.051Z,5.40
2019-01-14T11:19:45.506Z,5.10
2019-01-14T11:22:16.073Z,4.80
2019-01-14T11:24:49.986Z,4.40
2019-01-14T11:27:20.743Z,4.20
2019-01-14T11:29:53.926Z,3.90
2019-01-14T11:32:24.512Z,3.80
2019-01-14T11:34:55.097Z,3.50
2019-01-14T11:37:25.550Z,3.40
2019-01-14T11:39:56.044Z,3.30
2019-01-14T11:42:26.496Z,3.30
2019-01-14T11:44:56.977Z,3.50
2019-01-14T11:47:27.513Z,3.60
2019-01-14T11:49:58.008Z,3.60
2019-01-14T11:52:28.479Z,3.60
2019-01-14T11:54:58.984Z,3.60
2019-01-14T11:57:29.430Z,3.70
2019-01-14T11:59:59.924Z,3.80
2019-01-14T12:02:30.446Z,4.00
2019-01-14T12:05:00.903Z,4.20
2019-01-14T12:07:31.390Z,4.30
2019-01-14T12:10:01.859Z,4.50
2019-01-14T12:12:32.510Z,4.60
2019-01-14T12:15:03.224Z,4.60
2019-01-14T12:17:33.718Z,4.50
2019-01-14T12:20:06.499Z,4.30
2019-01-14T12:22:37.002Z,4.30
2019-01-14T12:25:09.405Z,4.20
2019-01-14T12:27:39.853Z,4.20
2019-01-14T12:30:44.794Z,4.00
2019-01-14T12:33:15.343Z,3.80
2019-01-14T12:35:45.833Z,3.80
2019-01-14T12:38:16.486Z,3.80
2019-01-14T12:40:46.956Z,3.70
2019-01-14T12:43:17.410Z,3.50
2019-01-14T12:45:48.002Z,3.30
2019-01-14T12:48:18.455Z,3.10
2019-01-14T12:50:49.006Z,3.10
2019-01-14T12:53:19.465Z,3.10
2019-01-14T12:55:49.960Z,3.20
2019-01-14T12:58:20.421Z,3.30
2019-01-14T13:00:50.928Z,3.40
2019-01-14T13:03:21.388Z,3.50
2019-01-14T13:05:51.871Z,3.60
2019-01-14T13:08:22.361Z,3.80
2019-01-14T13:10:52.878Z,3.80
2019-01-14T13:13:23.333Z,3.80
2019-01-14T13:15:53.896Z,3.80
2019-01-14T13:18:24.350Z,3.80
2019-01-14T13:20:54.899Z,3.70
2019-01-14T13:23:25.427Z,3.70
2019-01-14T13:25:55.939Z,3.60
2019-01-14T13:28:26.391Z,3.50
2019-01-14T13:30:56.870Z,3.50
2019-01-14T13:33:27.342Z,3.50
2019-01-14T13:35:59.952Z,3.40
2019-01-14T13:38:30.489Z,3.40
2019-01-14T13:41:00.983Z,3.30
2019-01-14T13:43:31.456Z,3.20
2019-01-14T13:46:02.040Z,3.20
2019-01-14T13:48:32.622Z,3.10
2019-01-14T13:51:03.112Z,3.10
2019-01-14T13:53:33.568Z,3.10
2019-01-14T13:56:06.721Z,3.00
2019-01-14T13:58:37.201Z,3.00
2019-01-14T14:01:07.660Z,3.10
2019-01-14T14:03:38.173Z,3.00
2019-01-14T14:06:08.667Z,3.00
2019-01-14T14:08:39.189Z,2.70
2019-01-14T14:11:09.631Z,2.70
2019-01-14T14:13:40.127Z,2.70
2019-01-14T14:16:10.583Z,2.80
2019-01-14T14:18:41.157Z,2.80
2019-01-14T14:21:11.621Z,2.80
2019-01-14T14:23:42.192Z,2.80
2019-01-14T14:26:13.491Z,2.70
2019-01-14T14:28:43.964Z,2.70
2019-01-14T14:31:14.492Z,2.60
2019-01-14T14:33:44.997Z,2.50
2019-01-14T14:36:15.455Z,2.50
2019-01-14T14:38:45.944Z,2.40
2019-01-14T14:41:16.442Z,2.30
2019-01-14T14:43:47.963Z,2.30
2019-01-14T14:46:18.502Z,2.20
2019-01-14T14:48:48.962Z,2.20
2019-01-14T14:51:19.506Z,2.10
2019-01-14T14:53:50.000Z,2.10
2019-01-14T14:56:20.439Z,2.00
2019-01-14T14:58:50.920Z,2.00
2019-01-14T15:01:21.412Z,2.00
2019-01-14T15:03:51.871Z,1.90
2019-01-14T15:06:22.369Z,1.90
2019-01-14T15:08:52.854Z,1.80
2019-01-14T15:11:23.309Z,1.80
2019-01-14T15:13:53.796Z,1.80
2019-01-14T15:16:24.295Z,1.70
2019-01-14T15:18:54.753Z,1.80
2019-01-14T15:21:25.251Z,1.70
2019-01-14T15:23:55.735Z,1.70
2019-01-14T15:26:26.187Z,1.70
2019-01-14T15:28:56.663Z,1.60
2019-01-14T15:31:27.111Z,1.60
2019-01-14T15:33:57.663Z,1.60
2019-01-14T15:36:29.993Z,1.60
2019-01-14T15:39:00.478Z,1.60
2019-01-14T15:41:30.935Z,1.50
2019-01-14T15:44:01.439Z,1.50
2019-01-14T15:46:31.897Z,1.50
2019-01-14T15:49:02.366Z,1.40
2019-01-14T15:51:32.906Z,1.40
2019-01-14T15:54:03.420Z,1.40
2019-01-14T15:56:33.955Z,1.40
2019-01-14T15:59:04.441Z,1.40
2019-01-14T16:01:34.953Z,1.40
2019-01-14T16:04:05.796Z,1.30
2019-01-14T16:06:36.255Z,1.30
2019-01-14T16:09:08.752Z,1.30
2019-01-14T16:11:39.201Z,1.30
2019-01-14T16:14:09.765Z,1.30
2019-01-14T16:16:40.358Z,1.30
2019-01-14T16:19:10.846Z,1.30
2019-01-14T16:21:41.426Z,1.20
2019-01-14T16:24:11.916Z,1.20
2019-01-14T16:26:42.385Z,1.20
2019-01-14T16:29:12.893Z,1.20
2019-01-14T16:31:43.420Z,1.10
2019-01-14T16:34:13.906Z,1.10
2019-01-14T16:36:44.356Z,1.20
2019-01-14T16:39:14.835Z,1.10
2019-01-14T16:41:48.350Z,1.10
2019-01-14T16:44:20.376Z,1.10
2019-01-14T16:46:50.872Z,1.10
2019-01-14T16:49:21.351Z,1.00
2019-01-14T16:51:51.883Z,1.00
2019-01-14T16:54:22.410Z,1.00
2019-01-14T16:56:52.857Z,1.00
2019-01-14T16:59:23.347Z,1.00
2019-01-14T17:01:53.811Z,0.90
2019-01-14T17:04:24.306Z,0.90
2019-01-14T17:06:54.746Z,1.00
2019-01-14T17:09:25.243Z,0.90
2019-01-14T17:11:55.699Z,0.90
2019-01-14T17:14:26.190Z,0.90
2019-01-14T17:16:56.636Z,0.90
2019-01-14T17:19:27.118Z,0.90
2019-01-14T17:21:57.574Z,0.90
2019-01-14T17:24:28.176Z,1.00
2019-01-14T17:26:58.952Z,0.90
2019-01-14T17:29:29.396Z,0.90
2019-01-14T17:31:59.952Z,0.90
2019-01-14T17:34:30.428Z,0.90
2019-01-14T17:37:01.738Z,0.80
2019-01-14T17:39:32.293Z,0.80
2019-01-14T17:42:03.255Z,0.70
2019-01-14T17:44:33.707Z,0.70
2019-01-14T17:47:16.865Z,0.70
2019-01-14T17:49:48.906Z,0.70
2019-01-14T17:52:19.374Z,0.70
2019-01-14T17:54:49.882Z,0.60
2019-01-14T17:57:20.333Z,0.60
2019-01-14T17:59:50.839Z,0.60
2019-01-14T18:02:21.291Z,0.60
2019-01-14T18:04:51.811Z,0.50
2019-01-14T18:07:22.636Z,0.50
2019-01-14T18:09:53.120Z,0.60
2019-01-14T18:12:23.604Z,0.50
2019-01-14T18:14:54.054Z,0.60
2019-01-14T18:17:24.535Z,0.60
2019-01-14T18:19:54.984Z,0.60
2019-01-14T18:22:25.474Z,0.50
2019-01-14T18:24:55.935Z,0.60
2019-01-14T18:27:26.436Z,0.60
2019-01-14T18:29:56.884Z,0.50
2019-01-14T18:32:27.363Z,0.50
2019-01-14T18:34:57.848Z,0.50
2019-01-14T18:37:28.299Z,0.50
2019-01-14T18:39:58.777Z,0.50
2019-01-14T18:42:29.231Z,0.50
2019-01-14T18:44:59.718Z,0.60
2019-01-14T18:47:30.167Z,0.60
2019-01-14T18:50:00.657Z,0.60
2019-01-14T18:52:31.144Z,0.60
2019-01-14T18:55:01.651Z,0.60
2019-01-14T18:57:32.483Z,0.60
2019-01-14T19:00:03.244Z,0.60
2019-01-14T19:02:33.730Z,0.60
2019-01-14T19:05:04.550Z,0.60
2019-01-14T19:07:35.178Z,0.40
2019-01-14T19:10:09.694Z,0.10
2019-01-14T19:12:40.219Z,-0.20
2019-01-14T19:15:17.358Z,-0.30
2019-01-14T19:17:48.547Z,-0.40
2019-01-14T19:20:25.012Z,-0.50
2019-01-14T19:22:55.590Z,-0.60
2019-01-14T19:25:26.303Z,-0.80
2019-01-14T19:27:56.791Z,-0.80
2019-01-14T19:30:27.263Z,-0.80
2019-01-14T19:32:57.752Z,-0.70
2019-01-14T19:35:28.219Z,-0.60
2019-01-14T19:38:00.344Z,-0.60
2019-01-14T19:40:30.897Z,-0.60
2019-01-14T19:43:01.464Z,-0.60
2019-01-14T19:45:31.962Z,-0.60
2019-01-14T19:48:02.554Z,-0.60
2019-01-14T19:50:33.141Z,-0.70
2019-01-14T19:53:04.560Z,-0.70
2019-01-14T19:55:35.072Z,-0.70
2019-01-14T19:58:05.904Z,-0.70
2019-01-14T20:00:37.007Z,-0.70
2019-01-14T20:03:07.504Z,-0.80
2019-01-14T20:05:38.048Z,-0.70
2019-01-14T20:08:08.938Z,-0.70
2019-01-14T20:10:42.938Z,-0.70
2019-01-14T20:13:13.414Z,-0.80
2019-01-14T20:15:43.931Z,-0.80
2019-01-14T20:18:14.386Z,-0.80
2019-01-14T20:20:44.893Z,-0.70
2019-01-14T20:23:15.350Z,-0.50
2019-01-14T20:25:45.853Z,-0.50
2019-01-14T20:28:16.322Z,-0.50
2019-01-14T20:30:46.826Z,-0.60
2019-01-14T20:33:19.556Z,-0.60
2019-01-14T20:35:49.480Z,-0.60
2019-01-14T20:38:19.973Z,-0.70
2019-01-14T20:40:50.466Z,-0.80
2019-01-14T20:43:21.046Z,-0.80
2019-01-14T20:45:51.509Z,-0.80
2019-01-14T20:48:23.649Z,-0.90
2019-01-14T20:50:54.145Z,-0.90
2019-01-14T20:53:24.617Z,-0.90
2019-01-14T20:55:56.719Z,-1.00
2019-01-14T20:58:27.266Z,-1.00
2019-01-14T21:00:57.769Z,-1.00
2019-01-14T21:03:28.313Z,-1.00
2019-01-14T21:05:58.947Z,-0.90
2019-01-14T21:08:29.397Z,-0.90
2019-01-14T21:11:00.019Z,-0.90
2019-01-14T21:13:30.592Z,-1.00
2019-01-14T21:16:03.021Z,-1.00
2019-01-14T21:18:33.247Z,-1.00
2019-01-14T21:21:03.799Z,-1.10
2019-01-14T21:23:34.293Z,-1.10
2019-01-14T21:26:05.170Z,-1.20
2019-01-14T21:28:35.691Z,-1.20
2019-01-14T21:31:06.302Z,-1.20
2019-01-14T21:33:36.798Z,-1.20
2019-01-14T21:36:07.338Z,-1.30
2019-01-14T21:38:37.920Z,-1.40
2019-01-14T21:41:08.414Z,-1.40
2019-01-14T21:43:38.944Z,-1.50
2019-01-14T21:46:09.505Z,-1.50
2019-01-14T21:48:39.992Z,-1.60
2019-01-14T21:51:12.162Z,-1.60
2019-01-14T21:53:42.653Z,-1.70
2019-01-14T21:56:13.148Z,-1.70
2019-01-14T21:58:43.644Z,-1.70
2019-01-14T22:01:14.124Z,-1.70
2019-01-14T22:03:44.622Z,-1.70
2019-01-14T22:06:15.196Z,-1.70
2019-01-14T22:08:45.695Z,-1.70
2019-01-14T22:11:16.166Z,-1.70
2019-01-14T22:13:46.727Z,-1.60
2019-01-14T22:16:18.036Z,-1.60
2019-01-14T22:18:48.550Z,-1.60
2019-01-14T22:21:19.014Z,-1.50
2019-01-14T22:23:49.513Z,-2.10
2019-01-14T22:26:19.984Z,-1.50
2019-01-14T22:28:50.464Z,-1.60
2019-01-14T22:31:21.021Z,-1.60
2019-01-14T22:33:51.504Z,-1.60
2019-01-14T22:36:21.997Z,-1.70
2019-01-14T22:38:52.465Z,-1.70
2019-01-14T22:41:23.024Z,-1.70
2019-01-14T22:43:53.483Z,-1.70
2019-01-14T22:46:23.990Z,-1.70
2019-01-14T22:48:54.526Z,-1.70
2019-01-14T22:51:25.027Z,-1.70
2019-01-14T22:53:55.547Z,-1.70
2019-01-14T22:56:26.013Z,-1.70
2019-01-14T22:58:56.504Z,-1.70
2019-01-14T23:01:28.982Z,-1.70
2019-01-14T23:04:00.009Z,-1.80
2019-01-14T23:06:30.619Z,-1.80
2019-01-14T23:09:01.145Z,-1.80
2019-01-14T23:11:31.613Z,-1.80
2019-01-14T23:14:02.122Z,-1.80
2019-01-14T23:16:32.619Z,-1.70
2019-01-14T23:19:03.118Z,-1.70
2019-01-14T23:21:33.613Z,-1.70
2019-01-14T23:24:04.499Z,-1.70
2019-01-14T23:26:34.959Z,-1.70
2019-01-14T23:29:05.479Z,-1.60
2019-01-14T23:31:35.940Z,-1.60
2019-01-14T23:34:06.579Z,-1.40
2019-01-14T23:36:37.076Z,-1.40
2019-01-14T23:39:09.180Z,-1.40
2019-01-14T23:41:39.746Z,-1.40
2019-01-14T23:44:10.237Z,-1.40
2019-01-14T23:46:40.707Z,-1.40
2019-01-14T23:49:11.251Z,-1.30
2019-01-14T23:51:41.735Z,-1.30
2019-01-14T23:54:14.374Z,-1.30
2019-01-14T23:56:44.838Z,-1.20
2019-01-14T23:59:15.353Z,-1.20
